Leme, Brazil
Current Conditions -  °F | °C
As of 9:00 AM on Friday 28 Nov 2014 (Local Time) from SBYS Reporting Station
Overcast Overcast  
Wind Chill: 73°   Ceiling: 2000
Heat Index: 73°   Visibility: 6mi
Dew Point: 66°   Wind: 10mph
Humidity: 78%   Direction: 180°S
Pressure: 30"   Gusts: NA
Location:  22.18°S, 47.38°W
Report Text: SBYS 281100Z 18009KT 9999 OVC020 23/19 Q1016
Loading
Personal Weather Stations






























Interactive Weather Map New forecast layout! Learn more

10-Day Weather Forecast

Advertisements
Track Severe Weather on mobile